Uni-arise — 3FSV7 — position and weather

sailwx.info

Track history (hours):
 
Tides and Currents Weather Stations Pressure Air Temp Water Temp Dewpoint Dewpoint Depression Visibility Wind Speed Wind Dir Waves Ship Positions

Uni-arise

Last reported at 2014-Oct-27 17:33 UTC. Time now 2014-Nov-01 12:07 UTC.
Position N 01°15' E 104°06'.

Length 165 m; draft 6.8 m.

Type: Cargo ship. MMSI: 351608000.

Date/timePositionNaut miles runAvg speedWind from/ knotsBaromVisibWave heightAir tempDewpointWater temp
2014-Oct-27 17:33N 01°15' E 104°06'1812.8
2014-Oct-27 16:07N 01°12' E 103°48'6 8.2
2014-Oct-27 15:27N 01°17' E 103°46'0 0.3
2014-Oct-27 14:20N 01°17' E 103°46'0 0.0
2014-Oct-27 13:26N 01°17' E 103°46'0 0.0
2014-Oct-27 06:26N 01°17' E 103°46'0 0.0
2014-Oct-27 04:32N 01°17' E 103°46'0 0.0
2014-Oct-27 02:20N 01°17' E 103°46'0 0.0
2014-Oct-27 01:25N 01°17' E 103°46'1 1.3
2014-Oct-27 00:33N 01°16' E 103°45'8 8.2
2014-Oct-26 23:32N 01°13' E 103°53'2 2.2
2014-Oct-26 22:34N 01°14' E 103°55'8 7.3
2014-Oct-26 21:29N 01°16' E 104°03'  
2014-Oct-22 09:07N 01°15' E 104°06'1016.1
2014-Oct-22 08:31N 01°13' E 103°56'19 0.4
2014-Oct-20 08:05N 01°11' E 103°37'915.9
2014-Oct-20 07:32N 01°09' E 103°46'1515.2
2014-Oct-20 06:33N 01°15' E 103°59'  
Track history (hours):
 
Tides and Currents Weather Stations Pressure Air Temp Water Temp Dewpoint Dewpoint Depression Visibility Wind Speed Wind Dir Waves Ship Positions

Uni-arise

Last reported at 2014-Oct-27 17:33 UTC. Time now 2014-Nov-01 12:07 UTC.
Position N 01°15' E 104°06'.

Length 165 m; draft 6.8 m.

Type: Cargo ship. MMSI: 351608000.

Date/timePositionNaut miles runAvg speedWind from/ knotsBaromVisibWave heightAir tempDewpointWater temp
2014-Oct-27 17:33N 01°15' E 104°06'1812.8
2014-Oct-27 16:07N 01°12' E 103°48'6 8.2
2014-Oct-27 15:27N 01°17' E 103°46'0 0.3
2014-Oct-27 14:20N 01°17' E 103°46'0 0.0
2014-Oct-27 13:26N 01°17' E 103°46'0 0.0
2014-Oct-27 06:26N 01°17' E 103°46'0 0.0
2014-Oct-27 04:32N 01°17' E 103°46'0 0.0
2014-Oct-27 02:20N 01°17' E 103°46'0 0.0
2014-Oct-27 01:25N 01°17' E 103°46'1 1.3
2014-Oct-27 00:33N 01°16' E 103°45'8 8.2
2014-Oct-26 23:32N 01°13' E 103°53'2 2.2
2014-Oct-26 22:34N 01°14' E 103°55'8 7.3
2014-Oct-26 21:29N 01°16' E 104°03'  
2014-Oct-22 09:07N 01°15' E 104°06'1016.1
2014-Oct-22 08:31N 01°13' E 103°56'19 0.4
2014-Oct-20 08:05N 01°11' E 103°37'915.9
2014-Oct-20 07:32N 01°09' E 103°46'1515.2
2014-Oct-20 06:33N 01°15' E 103°59'  

Dump ship's entire track history